Portada
METAR-TAF:

METAR-TAF

Aeropuertos :

Gerona, España

Aeropuerto de Gerona

latitud: 41-54N, longitud: 002-46E, altitud: 143 m

Observación

El informe se hizo hace 11 minutos, a las 09:30 UTC
Viento calma
Temperatura 8°C
Humedad 76%
Presión 1020 hPa
Visibilidad 10 km o más
Escasas nubes a una altura de 2500 ft

METAR: LEGE 160930Z 00000KT 9999 FEW025 08/04 Q1020

Hora: 10:41 (09:41 UTC)

Pronóstico

El informe se hizo hace 4 horas y 41 minutos, a las 05:00 UTC
Pronóstico válido del 16 a las 06 UTC al 17 a las 06 UTC
Viento 4 kt con dirección variable
Visibilidad 10 km o más
Escasas nubes a una altura de 2000 ft
Cielo nuboso a una altura de 5000 ft
Probabilidad 30% :
Temporalmente
del 16 a las 06 UTC al 16 a las 08 UTC
Visibilidad: 3000 m
Nubes dispersas a una altura de 200 ft
neblina

TAF: LEGE 160500Z 1606/1706 VRB04KT 9999 FEW020 BKN050 TX18/1613Z TN03/1607Z PROB30 TEMPO 1606/1608 3000 BR SCT002

Observaciones y pronósticos meteorológicos de más de 4000 aeropuertos (mensajes METAR y TAF).

Los puntos amarillos y rojos representan las estaciones disponibles.

Ponga el ratón en el punto deseado para ver el nombre de la estación.

Haga clic para ver las observaciones y los pronósticos meteorológicos.

Para cambiar el mapa : haga clic en los botones verdes con una cruz de color negro para hacer un zoom, en el botón verde con un guión para alejar o en las flechas verdes para mapas adyacentes.


METAR-TAF: